Time;durP1;ratioP1;P1;durP2;ratioP2;P2;SDS_P1;SDS_P2;PMS_P1;PMS_P2;Temp;Humidity;BMP_temperature;BMP_pressure;BME280_temperature;BME280_humidity;BME280_pressure;Samples;Min_cycle;Max_cycle;Signal;HPM_P1;HPM_P2
2022/11/09 00:00:33;;;;;;;2.10;1.90;;;;;;;10.74;100.00;99823.47;5113665;28;20217;-57
2022/11/09 00:03:00;;;;;;;2.67;1.90;;;;;;;10.74;100.00;99826.00;5113640;28;20225;-57
2022/11/09 00:05:27;;;;;;;0.93;0.83;;;;;;;10.70;100.00;99819.44;5113535;28;20246;-56
2022/11/09 00:07:55;;;;;;;1.80;1.70;;;;;;;10.65;100.00;99828.22;5113564;27;20205;-57
2022/11/09 00:10:22;;;;;;;2.10;1.70;;;;;;;10.67;100.00;99819.63;5113420;27;20709;-56
2022/11/09 00:12:49;;;;;;;1.37;1.17;;;;;;;10.65;100.00;99823.09;5113542;28;20201;-56
2022/11/09 00:15:15;;;;;;;1.60;1.20;;;;;;;10.60;100.00;99814.88;5113342;28;20224;-59
2022/11/09 00:17:42;;;;;;;2.07;1.43;;;;;;;10.54;100.00;99820.38;5113364;28;20215;-56
2022/11/09 00:20:11;;;;;;;1.73;1.27;;;;;;;10.52;100.00;99821.38;5113463;28;20221;-59
2022/11/09 00:22:38;;;;;;;1.53;1.43;;;;;;;10.60;100.00;99814.88;5113283;28;20388;-57
2022/11/09 00:25:07;;;;;;;1.93;1.60;;;;;;;10.61;100.00;99821.63;5113266;28;20225;-58
2022/11/09 00:27:34;;;;;;;2.23;1.87;;;;;;;10.62;100.00;99825.84;5113197;28;20201;-56
2022/11/09 00:30:01;;;;;;;1.87;1.47;;;;;;;10.60;100.00;99819.19;5113077;28;20608;-59
2022/11/09 00:32:28;;;;;;;1.23;1.10;;;;;;;10.58;100.00;99816.69;5113059;28;20202;-59
2022/11/09 00:34:54;;;;;;;2.70;2.00;;;;;;;10.53;100.00;99823.84;5112823;27;20225;-56
2022/11/09 00:37:21;;;;;;;2.60;1.57;;;;;;;10.54;100.00;99815.25;5112840;28;20197;-59
2022/11/09 00:39:48;;;;;;;2.03;1.63;;;;;;;10.53;100.00;99818.72;5112907;28;20221;-59
2022/11/09 00:42:16;;;;;;;2.00;1.27;;;;;;;10.53;100.00;99818.72;5111802;28;20322;-56
2022/11/09 00:44:43;;;;;;;2.60;1.97;;;;;;;10.49;100.00;99817.25;5112547;27;20217;-59
2022/11/09 00:47:10;;;;;;;1.37;1.10;;;;;;;10.52;100.00;99817.06;5112774;28;20201;-57
2022/11/09 00:49:36;;;;;;;2.53;1.67;;;;;;;10.52;100.00;99817.06;5112941;28;20582;-56
2022/11/09 00:52:03;;;;;;;2.30;1.90;;;;;;;10.47;100.00;99819.09;5112749;28;20639;-59
2022/11/09 00:54:30;;;;;;;3.07;1.60;;;;;;;10.45;100.00;99818.38;5112827;28;20226;-59
2022/11/09 00:56:57;;;;;;;5.73;1.63;;;;;;;10.36;100.00;99812.06;5112314;28;20208;-57
2022/11/09 00:59:25;;;;;;;3.07;1.43;;;;;;;10.34;100.00;99813.06;5112404;27;20270;-59
2022/11/09 01:01:52;;;;;;;1.00;0.90;;;;;;;10.37;100.00;99815.44;5112365;28;20201;-59
2022/11/09 01:04:19;;;;;;;4.57;1.80;;;;;;;10.33;100.00;99812.25;5112069;28;20297;-59
2022/11/09 01:06:45;;;;;;;1.90;1.53;;;;;;;10.29;100.00;99809.97;5112299;28;20225;-59
2022/11/09 01:09:12;;;;;;;1.63;1.20;;;;;;;10.32;99.90;99820.00;5112373;28;20221;-59
2022/11/09 01:11:39;;;;;;;1.40;1.30;;;;;;;10.31;99.41;99808.97;5112249;28;20193;-57
2022/11/09 01:14:06;;;;;;;5.13;1.77;;;;;;;10.32;98.83;99814.88;5112150;27;20259;-56
2022/11/09 01:16:34;;;;;;;1.70;1.40;;;;;;;10.29;98.86;99809.97;5112304;28;20210;-59
2022/11/09 01:19:01;;;;;;;1.83;1.73;;;;;;;10.28;98.20;99809.13;5112069;28;20776;-59
2022/11/09 01:21:28;;;;;;;1.40;1.30;;;;;;;10.25;98.06;99813.59;5112052;28;20258;-56
2022/11/09 01:23:55;;;;;;;1.93;1.23;;;;;;;10.15;97.76;99808.19;5111517;28;20228;-57
2022/11/09 01:26:22;;;;;;;2.50;2.30;;;;;;;10.03;98.27;99814.00;5112452;28;20200;-56
2022/11/09 01:28:49;;;;;;;2.37;1.50;;;;;;;10.02;97.95;99815.75;5111708;28;20197;-59
2022/11/09 01:31:18;;;;;;;2.50;1.37;;;;;;;10.00;97.37;99820.13;5111904;28;20206;-56
2022/11/09 01:33:46;;;;;;;1.93;1.47;;;;;;;9.93;97.08;99821.41;5111598;28;20227;-59
2022/11/09 01:36:16;;;;;;;3.63;1.77;;;;;;;9.81;97.21;99824.66;5112189;28;20204;-57
2022/11/09 01:38:43;;;;;;;2.40;2.13;;;;;;;9.75;97.88;99818.16;5111448;28;20246;-56
2022/11/09 01:41:13;;;;;;;1.90;1.57;;;;;;;9.79;98.00;99823.91;5111875;28;20197;-56
2022/11/09 01:43:40;;;;;;;1.93;1.67;;;;;;;9.65;98.46;99815.31;5111416;28;20704;-59
2022/11/09 01:46:16;;;;;;;1.57;1.23;;;;;;;9.69;100.00;99821.91;5111446;28;20196;-59
2022/11/09 01:48:49;;;;;;;1.00;0.97;;;;;;;9.63;100.00;99817.13;5111372;28;20201;-56
2022/11/09 01:51:26;;;;;;;1.83;1.30;;;;;;;9.68;100.00;99820.22;5111496;28;20197;-59
2022/11/09 01:53:58;;;;;;;1.53;1.30;;;;;;;9.72;100.00;99811.50;5111364;28;20692;-59
2022/11/09 01:56:26;;;;;;;0.90;0.87;;;;;;;9.77;100.00;99815.50;5111691;28;20246;-57
2022/11/09 01:58:57;;;;;;;0.50;0.50;;;;;;;9.74;100.00;99814.81;5111151;28;20614;-58
2022/11/09 02:01:24;;;;;;;1.23;1.07;;;;;;;9.77;100.00;99818.06;5111350;28;20197;-59
2022/11/09 02:03:55;;;;;;;0.57;0.57;;;;;;;9.64;100.00;99813.66;5111039;28;20236;-59
2022/11/09 02:06:25;;;;;;;1.47;1.23;;;;;;;9.61;100.00;99818.13;5111335;28;20673;-59
2022/11/09 02:08:56;;;;;;;1.93;1.83;;;;;;;9.58;100.00;99819.13;5110621;28;20201;-59
2022/11/09 02:11:26;;;;;;;1.83;1.50;;;;;;;9.62;100.00;99820.59;5111023;28;20696;-58
2022/11/09 02:13:56;;;;;;;2.73;1.57;;;;;;;9.61;100.00;99824.06;5110894;28;20205;-56
2022/11/09 02:16:24;;;;;;;0.90;0.90;;;;;;;9.61;100.00;99824.06;5110919;28;20254;-59
2022/11/09 02:18:53;;;;;;;3.87;1.50;;;;;;;9.68;100.00;99825.34;5110835;28;20201;-59
2022/11/09 02:21:23;;;;;;;2.60;1.80;;;;;;;9.72;100.00;99820.91;5110802;28;20194;-56
2022/11/09 02:23:50;;;;;;;1.37;1.17;;;;;;;9.61;100.00;99829.16;5110217;28;20300;-59
2022/11/09 02:26:21;;;;;;;2.17;1.37;;;;;;;9.57;100.00;99825.16;5110976;28;20200;-56
2022/11/09 02:28:48;;;;;;;2.00;1.33;;;;;;;9.55;100.00;99836.34;5110480;27;20489;-56
2022/11/09 02:31:17;;;;;;;1.67;1.33;;;;;;;9.44;100.00;99830.09;5110617;28;20669;-57
2022/11/09 02:33:53;;;;;;;1.13;0.87;;;;;;;9.51;100.00;99828.00;5110254;28;20308;-59
2022/11/09 02:36:22;;;;;;;4.10;1.37;;;;;;;9.50;100.00;99828.94;5110669;28;20224;-59
2022/11/09 02:38:49;;;;;;;1.10;1.10;;;;;;;9.44;100.00;99824.19;5110354;28;20288;-59
2022/11/09 02:41:16;;;;;;;1.77;1.13;;;;;;;9.34;100.00;99828.13;5110593;28;20254;-56
2022/11/09 02:43:43;;;;;;;3.43;1.60;;;;;;;9.29;100.00;99834.31;5110455;28;20263;-59
2022/11/09 02:46:10;;;;;;;2.50;1.67;;;;;;;9.30;100.00;99835.97;5110279;28;20200;-56
2022/11/09 02:48:36;;;;;;;4.97;1.90;;;;;;;9.36;100.00;99839.91;5110514;28;20595;-56
2022/11/09 02:51:03;;;;;;;1.73;1.23;;;;;;;9.36;100.00;99837.34;5110593;28;20712;-59
2022/11/09 02:53:31;;;;;;;6.30;1.80;;;;;;;9.37;100.00;99836.47;5110236;28;20205;-58
2022/11/09 02:55:58;;;;;;;1.87;0.93;;;;;;;9.33;100.00;99834.16;5110212;28;20708;-57
2022/11/09 02:58:25;;;;;;;2.20;1.30;;;;;;;9.22;100.00;99840.69;5110040;28;20193;-56
2022/11/09 03:00:52;;;;;;;1.63;1.53;;;;;;;9.19;100.00;99827.25;5109972;28;20217;-59
2022/11/09 03:03:19;;;;;;;1.27;1.10;;;;;;;9.23;100.00;99829.56;5110048;28;20616;-59
2022/11/09 03:05:45;;;;;;;2.63;1.30;;;;;;;9.27;100.00;99836.13;5109454;28;20229;-58
2022/11/09 03:08:12;;;;;;;1.67;1.30;;;;;;;9.26;100.00;99834.50;5110030;28;20193;-59
2022/11/09 03:10:40;;;;;;;1.47;1.37;;;;;;;9.22;100.00;99834.72;5110027;28;20220;-59
2022/11/09 03:13:07;;;;;;;1.40;1.30;;;;;;;9.24;100.00;99835.47;5110089;28;20201;-59
2022/11/09 03:15:34;;;;;;;1.97;1.13;;;;;;;9.23;100.00;99834.66;5109938;28;20217;-59
2022/11/09 03:18:01;;;;;;;1.57;1.40;;;;;;;9.24;100.00;99836.28;5109739;28;20193;-59
2022/11/09 03:20:27;;;;;;;1.57;1.00;;;;;;;9.23;100.00;99833.84;5109857;28;20225;-57
2022/11/09 03:22:57;;;;;;;3.23;2.03;;;;;;;9.22;100.00;99832.19;5109879;28;20647;-57
2022/11/09 03:25:24;;;;;;;1.90;1.60;;;;;;;9.26;100.00;99837.03;5109770;28;20303;-56
2022/11/09 03:27:57;;;;;;;2.60;1.30;;;;;;;9.24;100.00;99838.84;5110074;28;20224;-57
2022/11/09 03:30:24;;;;;;;0.93;0.80;;;;;;;9.23;100.00;99837.22;5109900;28;20376;-57
2022/11/09 03:32:51;;;;;;;3.07;1.37;;;;;;;9.23;100.00;99834.66;5109676;28;20205;-59
2022/11/09 03:35:18;;;;;;;3.13;2.23;;;;;;;9.22;100.00;99840.69;5109658;28;20246;-57
2022/11/09 03:37:44;;;;;;;1.80;1.57;;;;;;;9.22;100.00;99838.13;5109926;28;20743;-59
2022/11/09 03:40:12;;;;;;;1.37;1.27;;;;;;;9.23;100.00;99834.66;5109847;28;20221;-59
2022/11/09 03:42:44;;;;;;;2.83;1.30;;;;;;;9.26;100.00;99844.69;5109580;28;20285;-59
2022/11/09 03:45:13;;;;;;;0.93;0.80;;;;;;;9.26;100.00;99838.78;5109725;28;20666;-56
2022/11/09 03:47:40;;;;;;;0.73;0.70;;;;;;;9.15;100.00;99836.81;5109491;28;20262;-57
2022/11/09 03:50:08;;;;;;;1.27;1.13;;;;;;;9.24;100.00;99848.22;5109621;28;20705;-57
2022/11/09 03:52:36;;;;;;;2.73;1.83;;;;;;;9.26;100.00;99847.25;5109743;28;20670;-57
2022/11/09 03:55:04;;;;;;;1.43;1.33;;;;;;;9.32;100.00;99845.28;5109600;28;20221;-59
2022/11/09 03:57:31;;;;;;;1.50;1.40;;;;;;;9.42;100.00;99843.84;5109564;28;20418;-59
2022/11/09 03:59:58;;;;;;;1.17;1.07;;;;;;;9.48;100.00;99838.41;5109763;28;20280;-59
2022/11/09 04:02:26;;;;;;;1.00;0.90;;;;;;;9.44;100.00;99847.16;5109742;28;20200;-57
2022/11/09 04:04:53;;;;;;;2.50;1.80;;;;;;;9.53;100.00;99846.63;5109506;28;20232;-57
2022/11/09 04:07:20;;;;;;;2.30;1.73;;;;;;;9.56;100.00;99846.47;5109293;28;20193;-59
2022/11/09 04:09:46;;;;;;;1.80;1.70;;;;;;;9.50;100.00;99841.69;5109250;28;20709;-59
2022/11/09 04:12:13;;;;;;;5.20;2.60;;;;;;;9.57;100.00;99840.47;5109359;28;20672;-59
2022/11/09 04:14:40;;;;;;;2.40;1.27;;;;;;;9.70;100.00;99843.13;5109709;28;20754;-59
2022/11/09 04:17:07;;;;;;;3.27;1.77;;;;;;;9.77;100.00;99841.88;5109653;28;20258;-56
2022/11/09 04:19:35;;;;;;;2.27;1.43;;;;;;;9.75;100.00;99844.53;5113355;28;20222;-57
2022/11/09 04:22:02;;;;;;;1.93;1.53;;;;;;;9.82;100.00;99842.44;5113108;28;20686;-57
2022/11/09 04:24:29;;;;;;;1.33;1.17;;;;;;;9.80;100.00;99843.44;5112898;28;20595;-59
2022/11/09 04:26:55;;;;;;;1.07;0.93;;;;;;;9.83;100.00;99843.25;5112993;28;20219;-56
2022/11/09 04:29:22;;;;;;;2.97;1.50;;;;;;;9.95;100.00;99842.56;5112972;28;20294;-59
2022/11/09 04:31:49;;;;;;;2.60;1.73;;;;;;;10.05;100.00;99837.75;5112867;28;20202;-59
2022/11/09 04:34:17;;;;;;;1.47;1.33;;;;;;;10.12;100.00;99844.97;5112627;28;20213;-59
2022/11/09 04:36:45;;;;;;;3.03;1.23;;;;;;;10.15;100.00;99834.56;5112890;28;20193;-59
2022/11/09 04:39:12;;;;;;;1.37;1.30;;;;;;;10.23;100.00;99846.06;5112581;28;20217;-57
2022/11/09 04:41:39;;;;;;;3.73;1.80;;;;;;;10.24;100.00;99847.69;5112859;28;20197;-59
2022/11/09 04:44:06;;;;;;;1.77;1.30;;;;;;;10.21;100.00;99843.63;5112418;28;20244;-58
2022/11/09 04:46:33;;;;;;;3.13;1.73;;;;;;;10.20;100.00;99847.88;5112851;28;20198;-57
2022/11/09 04:49:00;;;;;;;1.57;1.47;;;;;;;10.24;100.00;99846.00;5112429;28;20705;-59
2022/11/09 04:51:27;;;;;;;1.27;0.97;;;;;;;10.29;100.00;99838.06;5112588;28;20193;-59
2022/11/09 04:53:55;;;;;;;2.20;1.93;;;;;;;10.44;100.00;99842.25;5112326;28;20198;-59
2022/11/09 04:56:22;;;;;;;1.13;0.93;;;;;;;10.57;100.00;99845.75;5112468;28;20229;-57
2022/11/09 04:58:49;;;;;;;2.40;2.20;;;;;;;10.60;100.00;99850.69;5112067;28;20258;-59
2022/11/09 05:01:16;;;;;;;1.63;1.40;;;;;;;10.63;100.00;99853.03;5112402;28;20205;-59
2022/11/09 05:03:42;;;;;;;1.83;1.67;;;;;;;10.64;99.98;99851.31;5112046;28;20252;-59
2022/11/09 05:08:50;;;;;;;4.33;2.30;;;;;;;10.72;99.65;99861.09;5111887;28;20259;-59
2022/11/09 05:11:19;;;;;;;3.17;2.50;;;;;;;10.66;99.51;99864.81;5112122;28;20197;-57
2022/11/09 05:13:46;;;;;;;1.80;1.40;;;;;;;10.72;99.11;99861.09;5111925;28;20677;-57
2022/11/09 05:16:13;;;;;;;3.03;1.80;;;;;;;10.75;99.06;99866.00;5112150;28;20202;-57
2022/11/09 05:18:40;;;;;;;1.87;1.77;;;;;;;10.67;98.67;99863.91;5112076;28;20200;-57
2022/11/09 05:21:07;;;;;;;2.50;2.30;;;;;;;10.71;98.82;99879.91;5112172;27;20204;-57
2022/11/09 05:26:35;;;;;;;2.30;1.83;;;;;;;10.73;98.38;99870.38;5048660;28;20257;-59
2022/11/09 05:29:04;;;;;;;1.37;1.27;;;;;;;10.73;98.20;99873.75;5048066;28;20711;-58
2022/11/09 05:31:32;;;;;;;1.60;1.50;;;;;;;10.72;98.07;99873.88;5077639;28;20205;-58
2022/11/09 05:33:59;;;;;;;2.17;1.33;;;;;;;10.73;98.07;99876.31;5111450;28;20205;-59
2022/11/09 05:36:27;;;;;;;3.10;1.30;;;;;;;10.77;97.94;99882.91;5111551;28;20229;-57
2022/11/09 05:38:54;;;;;;;1.67;1.57;;;;;;;10.73;98.19;99885.75;5111352;28;20765;-59
2022/11/09 05:41:21;;;;;;;1.60;1.33;;;;;;;10.78;97.65;99883.72;5111638;28;20201;-60
2022/11/09 05:43:49;;;;;;;0.87;0.87;;;;;;;10.78;97.08;99888.84;5111210;28;20279;-59
2022/11/09 05:46:17;;;;;;;1.33;1.03;;;;;;;10.73;97.43;99890.84;5111274;28;20201;-60
2022/11/09 05:48:44;;;;;;;2.47;1.70;;;;;;;10.70;97.91;99893.59;5111241;28;20197;-59
2022/11/09 05:51:13;;;;;;;1.77;1.50;;;;;;;10.71;98.32;99890.16;5111256;28;20669;-57
2022/11/09 05:53:40;;;;;;;1.50;1.40;;;;;;;10.75;97.69;99904.38;5111441;27;20189;-57
2022/11/09 05:56:09;;;;;;;2.13;1.93;;;;;;;10.78;97.57;99899.06;5111190;28;20205;-60
2022/11/09 05:58:37;;;;;;;1.63;1.27;;;;;;;10.81;97.85;99899.72;5111253;28;20193;-59
2022/11/09 06:01:07;;;;;;;1.73;1.53;;;;;;;10.91;98.01;99905.13;5111361;28;20323;-59
2022/11/09 06:03:33;;;;;;;2.37;1.30;;;;;;;11.03;97.41;99908.66;5110849;28;20778;-57
2022/11/09 06:06:02;;;;;;;4.00;2.63;;;;;;;11.00;97.12;99903.72;5111376;28;20229;-59
2022/11/09 06:08:29;;;;;;;1.40;1.20;;;;;;;11.10;96.84;99904.78;5110892;28;20296;-57
2022/11/09 06:11:00;;;;;;;1.50;1.20;;;;;;;11.28;96.56;99910.53;5111108;28;20631;-60
2022/11/09 06:13:27;;;;;;;2.27;2.07;;;;;;;11.28;96.29;99908.78;5110746;28;20204;-59
2022/11/09 06:15:54;;;;;;;1.50;1.33;;;;;;;11.39;96.29;99905.56;5110979;28;20594;-60
2022/11/09 06:18:23;;;;;;;2.97;1.43;;;;;;;11.47;96.28;99908.47;5110863;28;20204;-60
2022/11/09 06:20:52;;;;;;;1.80;1.40;;;;;;;11.55;96.04;99916.50;5110896;28;20536;-57
2022/11/09 06:23:24;;;;;;;1.90;1.43;;;;;;;11.68;95.59;99910.59;5110372;28;20288;-57
2022/11/09 06:25:51;;;;;;;1.47;1.37;;;;;;;11.91;94.28;99912.53;5110449;28;20704;-60
2022/11/09 06:28:18;;;;;;;1.40;1.30;;;;;;;12.12;93.68;99914.63;5110602;28;20205;-59
2022/11/09 06:30:45;;;;;;;1.27;1.17;;;;;;;12.34;92.31;99912.28;5110545;28;20225;-57
2022/11/09 06:33:11;;;;;;;5.17;1.97;;;;;;;12.68;90.54;99918.56;5110463;28;20201;-60
2022/11/09 06:35:40;;;;;;;2.30;1.47;;;;;;;12.89;88.84;99923.16;5110682;28;20295;-57
2022/11/09 06:38:06;;;;;;;1.40;1.30;;;;;;;13.03;88.51;99922.19;5110569;28;20722;-58
2022/11/09 06:40:34;;;;;;;1.50;1.40;;;;;;;13.41;87.02;99923.84;5109761;28;20236;-58
2022/11/09 06:43:01;;;;;;;2.47;2.13;;;;;;;13.72;86.14;99925.88;5110240;28;20197;-58
2022/11/09 06:45:29;;;;;;;4.90;1.70;;;;;;;14.08;84.88;99931.88;5110338;28;20229;-57
2022/11/09 06:47:57;;;;;;;2.80;1.50;;;;;;;14.30;83.92;99928.53;5110584;28;20223;-57
2022/11/09 06:50:24;;;;;;;1.83;1.40;;;;;;;14.66;81.46;99930.13;5110571;28;20254;-57
2022/11/09 06:52:55;;;;;;;1.83;1.53;;;;;;;14.97;79.34;99925.22;5110177;27;20266;-57
2022/11/09 06:55:22;;;;;;;1.50;1.40;;;;;;;15.17;78.99;99931.41;5110452;28;20273;-60
2022/11/09 06:57:49;;;;;;;3.30;2.47;;;;;;;15.19;78.22;99928.72;5110045;28;20207;-62
2022/11/09 07:00:17;;;;;;;2.20;2.00;;;;;;;15.37;78.22;99932.41;5110651;28;20232;-58
2022/11/09 07:02:44;;;;;;;1.93;1.67;;;;;;;15.62;77.58;99932.13;5110158;28;20600;-61
2022/11/09 07:05:10;;;;;;;3.17;1.73;;;;;;;15.82;76.88;99932.28;5110033;28;20229;-61
2022/11/09 07:07:37;;;;;;;2.87;1.83;;;;;;;15.76;75.72;99932.78;5110344;28;20204;-61
2022/11/09 07:10:06;;;;;;;2.03;1.53;;;;;;;16.05;76.30;99933.81;5110309;28;20221;-61
2022/11/09 07:12:34;;;;;;;3.37;1.70;;;;;;;16.21;75.26;99937.75;5110065;28;20265;-57
2022/11/09 07:15:01;;;;;;;3.20;1.80;;;;;;;16.33;73.81;99939.31;5110251;28;20526;-58
2022/11/09 07:17:30;;;;;;;2.80;1.77;;;;;;;16.15;73.45;99943.41;5110130;28;20673;-61
2022/11/09 07:19:56;;;;;;;2.90;2.00;;;;;;;16.18;74.14;99938.81;5110245;28;20656;-57
2022/11/09 07:22:23;;;;;;;2.87;1.73;;;;;;;16.07;73.77;99937.09;5110303;28;20681;-58
2022/11/09 07:24:50;;;;;;;3.07;1.43;;;;;;;15.82;74.21;99942.59;5109728;28;20706;-57
2022/11/09 07:27:18;;;;;;;3.00;1.87;;;;;;;15.74;75.47;99935.50;5110094;28;20190;-58
2022/11/09 07:29:45;;;;;;;2.10;1.37;;;;;;;15.70;74.95;99933.28;5109988;28;20229;-61
2022/11/09 07:32:12;;;;;;;1.90;1.17;;;;;;;15.65;75.41;99935.38;5110061;28;20198;-61
2022/11/09 07:34:38;;;;;;;6.10;1.83;;;;;;;15.45;76.70;99940.38;5110134;28;20221;-58
2022/11/09 07:37:05;;;;;;;9.17;1.97;;;;;;;15.53;76.57;99938.00;5109884;28;20192;-57
2022/11/09 07:39:33;;;;;;;1.90;1.53;;;;;;;15.32;76.40;99934.53;5109956;28;20221;-57
2022/11/09 07:41:59;;;;;;;1.73;1.60;;;;;;;15.34;77.63;99935.22;5109901;28;20259;-57
2022/11/09 07:44:27;;;;;;;2.80;1.77;;;;;;;15.47;76.48;99941.03;5109586;28;20759;-60
2022/11/09 07:46:54;;;;;;;1.40;1.20;;;;;;;15.44;77.11;99937.91;5109746;28;20197;-57
2022/11/09 07:49:21;;;;;;;2.37;1.77;;;;;;;15.39;77.21;99944.25;5109575;28;20275;-57
2022/11/09 07:51:48;;;;;;;3.30;2.03;;;;;;;15.58;76.64;99945.34;5110775;28;20201;-60
2022/11/09 07:54:14;;;;;;;2.83;1.80;;;;;;;15.80;77.60;99939.34;5113506;27;20414;-60
2022/11/09 07:56:41;;;;;;;2.67;1.90;;;;;;;16.37;75.28;99940.69;5113924;28;20201;-57
2022/11/09 07:59:08;;;;;;;3.50;1.70;;;;;;;17.19;72.26;99945.00;5113709;28;20227;-60
2022/11/09 08:01:36;;;;;;;2.20;1.50;;;;;;;17.56;69.41;99952.16;5114057;28;20209;-60
2022/11/09 08:04:05;;;;;;;2.27;1.53;;;;;;;17.35;67.81;99955.66;5113226;28;20320;-60
2022/11/09 08:06:32;;;;;;;3.30;2.20;;;;;;;17.06;69.69;99947.81;5113501;28;20194;-61
2022/11/09 08:08:58;;;;;;;2.37;1.87;;;;;;;16.74;69.83;99951.34;5113350;28;20578;-62
2022/11/09 08:11:26;;;;;;;3.40;2.20;;;;;;;16.59;70.98;99947.47;5113619;28;20196;-57
2022/11/09 08:13:53;;;;;;;2.27;1.77;;;;;;;16.21;71.27;99953.22;5113148;28;20248;-59
2022/11/09 08:16:20;;;;;;;2.10;1.50;;;;;;;16.24;73.09;99952.97;5113326;28;20205;-62
2022/11/09 08:18:49;;;;;;;2.10;1.53;;;;;;;16.58;71.35;99955.31;5112952;28;20208;-61
2022/11/09 08:21:16;;;;;;;2.87;1.50;;;;;;;16.50;70.21;99954.22;5113230;28;20199;-57
2022/11/09 08:23:42;;;;;;;5.70;2.50;;;;;;;16.68;70.29;99961.38;5112779;28;20192;-57
2022/11/09 08:26:10;;;;;;;2.57;1.67;;;;;;;16.40;70.68;99953.34;5113093;28;20229;-57
2022/11/09 08:28:38;;;;;;;2.37;2.00;;;;;;;16.75;71.36;99958.16;5113168;28;20204;-61
2022/11/09 08:31:08;;;;;;;3.47;2.10;;;;;;;17.43;68.00;99947.25;5113229;27;20254;-58
2022/11/09 08:33:37;;;;;;;2.70;1.43;;;;;;;17.97;66.36;99960.63;5112848;28;20193;-61
2022/11/09 08:36:10;;;;;;;4.00;2.03;;;;;;;18.45;64.23;99958.00;5113072;28;20205;-61
2022/11/09 08:38:38;;;;;;;3.13;2.47;;;;;;;19.14;62.70;99956.81;5112773;28;20203;-57
2022/11/09 08:41:05;;;;;;;2.90;1.97;;;;;;;19.36;59.14;99950.38;5113268;28;20450;-58
2022/11/09 08:43:32;;;;;;;3.03;1.83;;;;;;;19.76;60.17;99956.97;5112630;28;20195;-63
2022/11/09 08:45:58;;;;;;;6.63;2.90;;;;;;;19.97;59.05;99953.25;5112638;28;20229;-63
2022/11/09 08:48:25;;;;;;;5.87;2.30;;;;;;;19.97;55.69;99954.06;5112503;28;20202;-58
2022/11/09 08:50:54;;;;;;;5.17;2.83;;;;;;;19.85;57.89;99950.88;5112969;28;20224;-58
2022/11/09 08:53:22;;;;;;;3.47;2.37;;;;;;;19.89;58.67;99946.19;5112805;28;20603;-64
2022/11/09 08:55:49;;;;;;;4.10;2.27;;;;;;;20.46;56.86;99953.59;5112702;28;20233;-64
2022/11/09 08:58:15;;;;;;;7.17;1.83;;;;;;;20.76;55.24;99950.53;5112395;28;20211;-64
2022/11/09 09:00:42;;;;;;;2.57;1.90;;;;;;;20.70;54.45;99939.94;5112686;28;20580;-64
2022/11/09 09:03:09;;;;;;;4.07;2.20;;;;;;;21.13;53.47;99948.56;5111604;28;20639;-60
2022/11/09 09:05:36;;;;;;;4.57;2.53;;;;;;;21.28;52.12;99943.56;5112187;28;20234;-60
2022/11/09 09:08:05;;;;;;;2.97;2.07;;;;;;;21.02;53.89;99940.06;5112221;27;20250;-64
2022/11/09 09:10:35;;;;;;;4.07;2.63;;;;;;;21.42;52.55;99941.19;5112385;28;20285;-63
2022/11/09 09:13:02;;;;;;;4.70;2.47;;;;;;;21.47;51.73;99938.13;5112075;28;20231;-59
2022/11/09 09:15:29;;;;;;;4.23;2.27;;;;;;;21.48;51.90;99935.34;5112115;28;20904;-60
2022/11/09 09:17:56;;;;;;;2.73;2.07;;;;;;;21.29;52.61;99935.59;5111982;28;20190;-63
2022/11/09 09:20:22;;;;;;;3.33;2.40;;;;;;;20.65;54.84;99926.59;5112375;28;20229;-63
2022/11/09 09:22:49;;;;;;;4.87;2.50;;;;;;;21.13;54.22;99930.38;5112172;28;20279;-64
2022/11/09 09:25:16;;;;;;;3.37;2.07;;;;;;;21.72;53.71;99925.94;5112039;28;20306;-64
2022/11/09 09:27:45;;;;;;;4.00;2.33;;;;;;;22.08;52.19;99936.03;5112136;28;20764;-64
2022/11/09 09:30:12;;;;;;;2.77;2.00;;;;;;;22.27;50.47;99933.09;5112111;28;20218;-60
2022/11/09 09:32:39;;;;;;;2.87;2.20;;;;;;;22.44;49.76;99925.25;5111795;27;20745;-60
2022/11/09 09:35:07;;;;;;;5.17;2.73;;;;;;;22.26;49.66;99928.88;5111783;28;20224;-64
2022/11/09 09:37:33;;;;;;;5.00;2.43;;;;;;;22.14;51.45;99924.94;5111634;28;20200;-64
2022/11/09 09:40:00;;;;;;;5.40;2.60;;;;;;;22.47;49.62;99930.94;5111498;28;20221;-60
2022/11/09 09:42:32;;;;;;;3.97;2.67;;;;;;;22.59;49.48;99923.56;5111579;28;20197;-64
2022/11/09 09:45:04;;;;;;;5.57;2.70;;;;;;;22.44;48.99;99925.25;5111466;28;20327;-59
2022/11/09 09:47:46;;;;;;;4.38;2.63;;;;;;;22.80;48.81;99920.38;5111323;28;20422;-60
2022/11/09 09:50:17;;;;;;;3.13;2.50;;;;;;;22.67;49.34;99920.94;5111648;28;20659;-64
2022/11/09 09:52:48;;;;;;;3.50;2.43;;;;;;;22.61;48.55;99921.59;5111544;28;20211;-60
2022/11/09 09:55:20;;;;;;;4.80;2.63;;;;;;;22.50;48.98;99908.94;5111540;27;20267;-64
2022/11/09 09:57:53;;;;;;;3.20;2.23;;;;;;;22.12;49.62;99912.06;5111307;28;20201;-59
2022/11/09 10:00:24;;;;;;;4.67;2.77;;;;;;;22.33;50.29;99916.78;5111819;28;20216;-64
2022/11/09 10:02:51;;;;;;;3.37;2.27;;;;;;;22.28;49.58;99908.69;5111210;28;20197;-59
2022/11/09 10:05:20;;;;;;;4.27;2.50;;;;;;;22.41;49.74;99904.72;5110808;28;20229;-64
2022/11/09 10:07:54;;;;;;;5.20;3.30;;;;;;;22.70;49.37;99909.34;5111069;28;20202;-64
2022/11/09 10:10:36;;;;;;;3.97;2.47;;;;;;;23.05;48.05;99898.44;5111549;28;20220;-64
2022/11/09 10:13:33;;;;;;;5.47;3.17;;;;;;;22.91;48.26;99900.94;5110890;28;20194;-60
2022/11/09 10:16:10;;;;;;;3.10;2.20;;;;;;;22.53;48.52;99908.59;5109783;28;20228;-64
2022/11/09 10:18:47;;;;;;;5.57;3.03;;;;;;;22.37;49.74;99904.25;5111013;28;20668;-64
2022/11/09 10:21:31;;;;;;;6.27;3.10;;;;;;;22.36;48.90;99897.41;5111056;28;20201;-60
2022/11/09 10:24:14;;;;;;;4.93;2.60;;;;;;;22.06;49.14;99899.72;5110778;28;20206;-59
2022/11/09 10:26:45;;;;;;;4.53;2.90;;;;;;;21.70;49.68;99892.28;5110871;28;20257;-64
2022/11/09 10:29:23;;;;;;;3.67;2.47;;;;;;;22.01;49.75;99888.16;5110937;28;20300;-60
2022/11/09 10:31:57;;;;;;;3.83;2.50;;;;;;;22.14;48.10;99893.69;5110831;28;20666;-64
2022/11/09 10:34:29;;;;;;;3.33;2.67;;;;;;;21.61;49.61;99879.41;5110613;28;20231;-64
2022/11/09 10:37:04;;;;;;;2.97;2.30;;;;;;;21.84;49.03;99879.56;5110749;28;20208;-64
2022/11/09 10:39:40;;;;;;;3.30;2.30;;;;;;;22.24;48.16;99881.31;5110427;28;20307;-60
2022/11/09 10:42:11;;;;;;;4.37;2.57;;;;;;;22.49;47.09;99879.47;5110791;28;20295;-60
2022/11/09 10:44:38;;;;;;;3.77;2.70;;;;;;;22.26;47.73;99871.56;5110780;28;20312;-62
2022/11/09 10:47:08;;;;;;;3.10;2.03;;;;;;;21.74;47.80;99871.13;5110579;28;20724;-64
2022/11/09 10:49:36;;;;;;;3.70;2.53;;;;;;;21.08;50.48;99871.03;5110351;28;20243;-64
2022/11/09 10:52:03;;;;;;;3.20;2.23;;;;;;;21.51;49.24;99860.56;5110539;28;20202;-64
2022/11/09 10:54:33;;;;;;;3.70;2.47;;;;;;;21.45;49.31;99857.63;5110093;28;20272;-63
2022/11/09 10:57:12;;;;;;;3.00;2.03;;;;;;;21.28;48.35;99866.34;5110569;28;20625;-64
2022/11/09 10:59:48;;;;;;;2.97;2.00;;;;;;;21.39;48.88;99853.06;5110462;28;20278;-60
2022/11/09 11:02:42;;;;;;;4.23;2.30;;;;;;;21.62;48.98;99862.84;5110403;28;20235;-60
2022/11/09 11:05:27;;;;;;;3.03;2.30;;;;;;;21.59;49.33;99857.97;5102054;28;20227;-64
2022/11/09 11:07:54;;;;;;;4.33;2.97;;;;;;;21.72;48.20;99855.66;5110145;28;20200;-63
2022/11/09 11:10:23;;;;;;;7.17;2.57;;;;;;;21.93;47.57;99848.16;5110219;28;20224;-60
2022/11/09 11:13:12;;;;;;;4.67;2.27;;;;;;;21.68;47.37;99846.56;5109970;28;20200;-59
2022/11/09 11:15:41;;;;;;;4.97;2.97;;;;;;;21.62;47.74;99847.22;5110380;28;20228;-64
2022/11/09 11:18:17;;;;;;;2.53;1.93;;;;;;;21.61;48.17;99845.56;5110307;28;20197;-62
2022/11/09 11:20:44;;;;;;;3.60;2.53;;;;;;;21.93;47.05;99844.72;5110075;28;20715;-59
2022/11/09 11:23:12;;;;;;;6.03;2.77;;;;;;;21.69;48.19;99838.56;5109904;28;20199;-59
2022/11/09 11:26:03;;;;;;;3.87;2.73;;;;;;;21.35;48.78;99833.53;5110281;28;20710;-63
2022/11/09 11:28:38;;;;;;;2.80;2.17;;;;;;;21.69;47.76;99837.75;5113992;28;20672;-59
2022/11/09 11:31:11;;;;;;;3.57;2.30;;;;;;;21.80;47.71;99839.22;5114472;28;20684;-60
2022/11/09 11:33:40;;;;;;;3.17;2.13;;;;;;;21.73;47.64;99833.88;5114296;28;20196;-60
2022/11/09 11:36:16;;;;;;;3.87;2.33;;;;;;;21.91;47.23;99838.88;5114293;28;20199;-64
2022/11/09 11:38:51;;;;;;;3.50;2.13;;;;;;;21.88;46.89;99837.41;5113953;28;20242;-59
2022/11/09 11:41:55;;;;;;;4.00;2.20;;;;;;;21.83;46.86;99839.69;5114400;28;20196;-63
2022/11/09 11:44:46;;;;;;;2.73;2.33;;;;;;;21.63;46.64;99838.41;5113877;28;20223;-63